createdAt,value
2022-08-24T00:01:20.817Z,3.10
2022-08-24T00:03:54.285Z,4.47
2022-08-24T00:06:23.548Z,6.35
2022-08-24T00:08:52.046Z,4.07
2022-08-24T00:11:19.785Z,3.75
2022-08-24T00:13:48.120Z,6.13
2022-08-24T00:16:19.034Z,6.72
2022-08-24T00:18:46.847Z,4.45
2022-08-24T00:21:13.894Z,4.80
2022-08-24T00:23:40.841Z,5.35
2022-08-24T00:26:08.329Z,4.65
2022-08-24T00:28:36.015Z,3.85
2022-08-24T00:31:03.544Z,4.63
2022-08-24T00:33:32.156Z,5.38
2022-08-24T00:36:02.071Z,4.28
2022-08-24T00:38:29.743Z,4.93
2022-08-24T00:40:56.959Z,3.97
2022-08-24T00:43:26.330Z,3.88
2022-08-24T00:46:18.723Z,5.45
2022-08-24T00:48:49.419Z,3.80
2022-08-24T00:51:27.960Z,5.60
2022-08-24T00:54:01.349Z,4.82
2022-08-24T00:56:41.874Z,5.63
2022-08-24T00:59:13.814Z,7.60
2022-08-24T01:01:42.227Z,5.05
2022-08-24T01:04:17.731Z,4.28
2022-08-24T01:06:49.264Z,5.38
2022-08-24T01:09:16.779Z,4.97
2022-08-24T01:11:43.932Z,4.72
2022-08-24T01:14:13.639Z,7.32
2022-08-24T01:17:02.159Z,5.68
2022-08-24T01:19:50.540Z,7.30
2022-08-24T01:22:32.620Z,8.88
2022-08-24T01:25:00.686Z,5.20
2022-08-24T01:27:28.340Z,4.95
2022-08-24T01:29:59.931Z,6.85
2022-08-24T01:32:32.090Z,5.53
2022-08-24T01:35:02.092Z,4.75
2022-08-24T01:37:29.990Z,7.05
2022-08-24T01:39:59.222Z,6.28
2022-08-24T01:42:29.952Z,5.20
2022-08-24T01:44:59.967Z,4.25
2022-08-24T01:47:27.049Z,6.30
2022-08-24T01:49:56.527Z,5.65
2022-08-24T01:52:43.425Z,6.28
2022-08-24T01:55:19.919Z,3.88
2022-08-24T01:57:52.543Z,4.05
2022-08-24T02:00:19.526Z,6.78
2022-08-24T02:02:46.768Z,5.18
2022-08-24T02:05:17.241Z,4.20
2022-08-24T02:07:44.530Z,4.87
2022-08-24T02:10:15.535Z,4.53
2022-08-24T02:12:47.110Z,6.35
2022-08-24T02:15:16.258Z,5.07
2022-08-24T02:17:43.414Z,4.03
2022-08-24T02:20:10.612Z,4.50
2022-08-24T02:22:37.424Z,3.78
2022-08-24T02:25:04.800Z,6.22
2022-08-24T02:27:34.148Z,4.47
2022-08-24T02:30:04.240Z,5.10
2022-08-24T02:32:31.026Z,3.45
2022-08-24T02:35:01.056Z,3.45
2022-08-24T02:37:30.346Z,4.53
2022-08-24T02:39:57.264Z,3.15
2022-08-24T02:42:24.089Z,2.50
2022-08-24T02:44:51.024Z,4.07
2022-08-24T02:47:23.318Z,3.35
2022-08-24T02:50:07.981Z,5.80
2022-08-24T02:52:36.207Z,4.65
2022-08-24T02:55:03.380Z,3.40
2022-08-24T02:57:30.235Z,4.18
2022-08-24T02:59:59.885Z,4.45
2022-08-24T03:02:27.116Z,3.45
2022-08-24T03:04:56.975Z,5.22
2022-08-24T03:07:23.790Z,3.28
2022-08-24T03:09:50.580Z,4.22
2022-08-24T03:12:18.319Z,3.50
2022-08-24T03:14:45.368Z,3.78
2022-08-24T03:17:12.232Z,4.40
2022-08-24T03:19:41.692Z,5.22
2022-08-24T03:22:14.023Z,6.38
2022-08-24T03:24:40.969Z,7.63
2022-08-24T03:27:11.354Z,6.57
2022-08-24T03:29:41.356Z,10.90
2022-08-24T03:32:08.290Z,10.77
2022-08-24T03:34:36.178Z,7.03
2022-08-24T03:37:05.677Z,5.35
2022-08-24T03:39:32.420Z,3.55
2022-08-24T03:42:06.202Z,10.80
2022-08-24T03:44:38.651Z,3.42
2022-08-24T03:47:10.611Z,4.85
2022-08-24T03:49:38.558Z,3.47
2022-08-24T03:52:06.946Z,4.15
2022-08-24T03:54:36.918Z,7.20
2022-08-24T03:57:06.379Z,13.40
2022-08-24T03:59:33.350Z,9.63
2022-08-24T04:02:04.793Z,6.60
2022-08-24T04:04:37.089Z,6.85
2022-08-24T04:07:04.405Z,7.80
2022-08-24T04:09:31.479Z,4.28
2022-08-24T04:11:58.446Z,4.53
2022-08-24T04:14:27.397Z,6.13
2022-08-24T04:16:57.548Z,5.18
2022-08-24T04:19:25.474Z,6.70
2022-08-24T04:21:55.540Z,6.43
2022-08-24T04:24:26.033Z,7.97
2022-08-24T04:26:55.457Z,6.05
2022-08-24T04:29:25.565Z,7.00
2022-08-24T04:31:53.569Z,8.45
2022-08-24T04:34:20.552Z,6.72
2022-08-24T04:36:47.472Z,7.18
2022-08-24T04:39:14.910Z,7.68
2022-08-24T04:41:42.572Z,9.23
2022-08-24T04:44:12.330Z,6.35
2022-08-24T04:46:41.785Z,8.15
2022-08-24T04:49:11.825Z,6.97
2022-08-24T04:51:38.804Z,8.75
2022-08-24T04:54:09.038Z,7.95
2022-08-24T04:56:36.620Z,8.13
2022-08-24T04:59:09.137Z,7.10
2022-08-24T05:01:42.258Z,7.35
2022-08-24T05:04:14.872Z,7.43
2022-08-24T05:06:44.342Z,5.90
2022-08-24T05:09:11.368Z,8.02
2022-08-24T05:11:40.828Z,8.55
2022-08-24T05:14:11.200Z,7.57
2022-08-24T05:19:12.402Z,10.82
2022-08-24T05:21:44.352Z,7.50
2022-08-24T05:24:16.619Z,7.07
2022-08-24T05:26:46.053Z,8.38
2022-08-24T05:29:12.993Z,8.27
2022-08-24T05:31:44.335Z,10.25
2022-08-24T05:36:45.490Z,9.60
2022-08-24T05:39:14.175Z,10.10
2022-08-24T05:41:44.521Z,8.65
2022-08-24T05:44:18.196Z,11.02
2022-08-24T05:46:45.694Z,10.85
2022-08-24T05:49:12.901Z,11.40
2022-08-24T05:51:40.570Z,10.73
2022-08-24T05:54:07.726Z,12.05
2022-08-24T05:56:37.018Z,12.20
2022-08-24T05:59:06.330Z,12.63
2022-08-24T06:01:35.658Z,10.68
2022-08-24T06:04:02.917Z,11.35
2022-08-24T06:06:32.512Z,10.55
2022-08-24T06:09:00.454Z,11.38
2022-08-24T06:11:34.680Z,10.32
2022-08-24T06:14:13.858Z,9.40
2022-08-24T06:16:45.365Z,11.40
2022-08-24T06:19:17.073Z,10.43
2022-08-24T06:21:46.769Z,12.80
2022-08-24T06:24:17.139Z,14.00
2022-08-24T06:27:03.675Z,14.00
2022-08-24T06:29:30.869Z,11.27
2022-08-24T06:31:59.957Z,15.02
2022-08-24T06:34:29.116Z,11.88
2022-08-24T06:36:58.073Z,12.55
2022-08-24T06:39:33.263Z,11.45
2022-08-24T06:42:00.213Z,14.57
2022-08-24T06:44:27.495Z,13.10
2022-08-24T06:46:59.342Z,15.23
2022-08-24T06:49:29.186Z,13.70
2022-08-24T06:51:56.744Z,11.05
2022-08-24T06:54:26.264Z,13.43
2022-08-24T06:56:55.415Z,10.10
2022-08-24T06:59:22.667Z,10.18
2022-08-24T07:01:53.583Z,8.15
2022-08-24T07:04:27.570Z,12.00
2022-08-24T07:06:55.546Z,10.35
2022-08-24T07:09:25.013Z,9.50
2022-08-24T07:11:55.546Z,9.95
2022-08-24T07:14:25.337Z,12.95
2022-08-24T07:16:55.473Z,13.35
2022-08-24T07:19:22.928Z,11.18
2022-08-24T07:21:56.665Z,7.50
2022-08-24T07:24:26.321Z,10.52
2022-08-24T07:26:56.367Z,9.93
2022-08-24T07:29:46.965Z,10.38
2022-08-24T07:32:15.331Z,9.82
2022-08-24T07:34:42.345Z,7.40
2022-08-24T07:37:11.296Z,9.25
2022-08-24T07:39:38.538Z,12.95
2022-08-24T07:42:13.791Z,6.80
2022-08-24T07:44:43.459Z,8.73
2022-08-24T07:47:36.393Z,7.75
2022-08-24T07:49:59.511Z,8.40
2022-08-24T07:52:27.948Z,6.65
2022-08-24T07:54:54.931Z,6.95
2022-08-24T07:57:21.707Z,5.30
2022-08-24T07:59:48.601Z,5.80
2022-08-24T08:02:18.442Z,6.05
2022-08-24T08:04:47.553Z,4.78
2022-08-24T08:07:17.618Z,4.32
2022-08-24T08:09:45.387Z,6.57
2022-08-24T08:12:12.969Z,7.05
2022-08-24T08:14:41.241Z,4.70
2022-08-24T08:17:10.345Z,6.63
2022-08-24T08:19:39.492Z,4.63
2022-08-24T08:22:28.048Z,6.07
2022-08-24T08:24:54.990Z,7.18
2022-08-24T08:27:25.221Z,3.80
2022-08-24T08:29:55.255Z,4.07
2022-08-24T08:32:24.614Z,4.65
2022-08-24T08:34:55.983Z,5.43
2022-08-24T08:37:27.449Z,4.60
2022-08-24T08:39:57.096Z,4.55
2022-08-24T08:42:50.182Z,4.85
2022-08-24T08:45:35.407Z,7.57
2022-08-24T08:48:26.148Z,5.20
2022-08-24T08:50:58.813Z,4.88
2022-08-24T08:53:56.051Z,3.20
2022-08-24T08:56:35.102Z,5.10
2022-08-24T08:59:38.906Z,4.85
2022-08-24T09:02:25.138Z,5.10
2022-08-24T09:05:30.820Z,5.00
2022-08-24T09:07:57.639Z,4.28
2022-08-24T09:10:41.068Z,4.53
2022-08-24T09:13:22.868Z,3.72
2022-08-24T09:16:16.257Z,3.30
2022-08-24T09:19:06.958Z,5.07
2022-08-24T09:22:03.312Z,3.30
2022-08-24T09:25:00.144Z,3.90
2022-08-24T09:28:05.288Z,5.45
2022-08-24T09:30:48.116Z,3.90
2022-08-24T09:33:26.683Z,3.17
2022-08-24T09:36:16.911Z,3.22
2022-08-24T09:39:08.390Z,2.45
2022-08-24T09:41:59.897Z,5.65
2022-08-24T09:44:45.225Z,3.03
2022-08-24T09:47:40.047Z,5.80
2022-08-24T09:50:36.366Z,7.55
2022-08-24T09:53:31.500Z,3.05
2022-08-24T09:56:11.786Z,4.53
2022-08-24T09:58:57.788Z,2.40
2022-08-24T10:01:31.349Z,4.63
2022-08-24T10:04:22.702Z,2.05
2022-08-24T10:07:17.770Z,4.43
2022-08-24T10:09:53.417Z,4.45
2022-08-24T10:12:56.055Z,3.63
2022-08-24T10:15:52.040Z,2.08
2022-08-24T10:18:35.028Z,4.63
2022-08-24T10:21:25.210Z,2.38
2022-08-24T10:24:30.275Z,2.90
2022-08-24T10:27:21.487Z,3.55
2022-08-24T10:30:26.660Z,4.60
2022-08-24T10:33:13.618Z,7.00
2022-08-24T10:35:55.230Z,3.13
2022-08-24T10:38:49.737Z,3.45
2022-08-24T10:41:27.865Z,2.63
2022-08-24T10:44:29.793Z,4.35
2022-08-24T10:47:06.061Z,5.07
2022-08-24T10:49:35.695Z,1.42
2022-08-24T10:52:05.327Z,2.72
2022-08-24T10:54:37.220Z,3.15
2022-08-24T10:57:23.011Z,2.55
2022-08-24T10:59:59.405Z,3.45
2022-08-24T11:02:34.490Z,1.88
2022-08-24T11:05:08.321Z,2.05
2022-08-24T11:07:53.444Z,5.20
2022-08-24T11:10:32.609Z,3.97
2022-08-24T11:13:39.417Z,5.47
2022-08-24T11:16:06.863Z,4.32
2022-08-24T11:18:49.488Z,2.97
2022-08-24T11:21:40.394Z,4.80
2022-08-24T11:24:18.519Z,8.07
2022-08-24T11:27:05.520Z,2.20
2022-08-24T11:29:54.907Z,2.10
2022-08-24T11:32:44.412Z,2.28
2022-08-24T11:35:33.778Z,5.60
2022-08-24T11:38:08.178Z,3.58
2022-08-24T11:40:40.546Z,4.53
2022-08-24T11:43:20.963Z,3.42
2022-08-24T11:46:11.580Z,3.13
2022-08-24T11:48:45.345Z,3.55
2022-08-24T11:51:25.493Z,3.33
2022-08-24T11:54:30.390Z,3.47
2022-08-24T11:57:29.285Z,2.80
2022-08-24T12:00:04.140Z,3.47
2022-08-24T12:03:00.708Z,4.60
2022-08-24T12:05:46.599Z,4.38
2022-08-24T12:08:36.195Z,5.07
2022-08-24T12:11:23.674Z,2.60
2022-08-24T12:14:11.923Z,3.75
2022-08-24T12:16:54.078Z,5.50
2022-08-24T12:19:27.027Z,2.75
2022-08-24T12:21:59.546Z,7.07
2022-08-24T12:24:35.853Z,3.53
2022-08-24T12:27:13.271Z,3.45
2022-08-24T12:29:51.665Z,5.30
2022-08-24T12:32:37.664Z,2.40
2022-08-24T12:35:07.107Z,4.68
2022-08-24T12:37:43.717Z,3.15
2022-08-24T12:40:32.052Z,5.38
2022-08-24T12:43:27.407Z,2.80
2022-08-24T12:46:02.560Z,2.10
2022-08-24T12:48:54.925Z,4.00
2022-08-24T12:51:42.795Z,2.88
2022-08-24T12:54:43.643Z,3.30
2022-08-24T12:57:31.109Z,3.05
2022-08-24T13:00:14.893Z,5.10
2022-08-24T13:02:55.003Z,2.60
2022-08-24T13:05:22.408Z,7.10
2022-08-24T13:07:51.829Z,6.43
2022-08-24T13:10:26.959Z,3.38
2022-08-24T13:13:19.666Z,2.88
2022-08-24T13:15:57.164Z,2.72
2022-08-24T13:18:45.787Z,3.92
2022-08-24T13:21:35.064Z,4.25
2022-08-24T13:24:40.918Z,3.20
2022-08-24T13:27:16.820Z,4.72
2022-08-24T13:29:51.897Z,3.40
2022-08-24T13:32:31.522Z,4.13
2022-08-24T13:34:59.495Z,4.80
2022-08-24T13:37:28.766Z,5.65
2022-08-24T13:40:16.531Z,4.03
2022-08-24T13:43:02.926Z,2.90
2022-08-24T13:45:46.261Z,4.47
2022-08-24T13:48:42.192Z,2.90
2022-08-24T13:51:20.833Z,2.72
2022-08-24T13:54:22.457Z,7.18
2022-08-24T13:57:09.367Z,2.78
2022-08-24T13:59:56.500Z,3.88
2022-08-24T14:02:44.188Z,4.10
2022-08-24T14:05:30.941Z,4.07
2022-08-24T14:08:10.404Z,4.90
2022-08-24T14:10:42.561Z,4.72
2022-08-24T14:14:13.131Z,3.83
2022-08-24T14:17:07.321Z,3.90
2022-08-24T14:23:08.328Z,3.85
2022-08-24T14:28:44.177Z,3.47
2022-08-24T14:34:21.707Z,4.20
2022-08-24T14:37:11.479Z,5.63
2022-08-24T14:39:52.589Z,2.95
2022-08-24T14:42:33.064Z,2.30
2022-08-24T14:45:02.952Z,2.35
2022-08-24T14:48:02.671Z,2.25
2022-08-24T14:50:52.420Z,4.18
2022-08-24T14:53:40.336Z,6.47
2022-08-24T14:56:09.980Z,3.55
2022-08-24T14:58:51.979Z,3.70
2022-08-24T15:01:34.392Z,4.20
2022-08-24T15:04:07.274Z,2.15
2022-08-24T15:06:48.494Z,2.17
2022-08-24T15:09:35.626Z,4.78
2022-08-24T15:12:33.985Z,3.80
2022-08-24T15:15:11.478Z,2.75
2022-08-24T15:18:06.494Z,6.15
2022-08-24T15:20:55.852Z,3.13
2022-08-24T15:23:27.818Z,3.92
2022-08-24T15:26:29.539Z,3.90
2022-08-24T15:28:57.133Z,4.88
2022-08-24T15:31:29.225Z,4.38
2022-08-24T15:34:00.888Z,2.60
2022-08-24T15:36:33.977Z,4.53
2022-08-24T15:39:05.804Z,4.07
2022-08-24T15:41:36.586Z,4.28
2022-08-24T15:47:00.480Z,2.78
2022-08-24T15:49:34.381Z,5.60
2022-08-24T15:52:06.177Z,6.22
2022-08-24T15:54:56.097Z,3.25
2022-08-24T15:57:29.594Z,4.30
2022-08-24T16:00:44.692Z,4.30
2022-08-24T16:03:22.294Z,3.47
2022-08-24T16:05:56.089Z,4.65
2022-08-24T16:08:25.662Z,3.60
2022-08-24T16:10:56.507Z,4.72
2022-08-24T16:16:08.929Z,5.55
2022-08-24T16:18:58.167Z,5.93
2022-08-24T16:21:41.664Z,3.10
2022-08-24T16:24:11.330Z,4.65
2022-08-24T16:26:47.251Z,3.42
2022-08-24T16:29:36.292Z,4.47
2022-08-24T16:32:21.256Z,6.00
2022-08-24T16:35:19.194Z,4.57
2022-08-24T16:37:46.058Z,7.20
2022-08-24T16:40:14.171Z,4.05
2022-08-24T16:42:43.230Z,3.05
2022-08-24T16:45:12.484Z,4.18
2022-08-24T16:47:39.256Z,4.30
2022-08-24T16:50:09.403Z,3.22
2022-08-24T16:52:36.242Z,5.68
2022-08-24T16:55:05.625Z,2.40
2022-08-24T16:57:37.666Z,4.70
2022-08-24T17:00:14.530Z,5.50
2022-08-24T17:02:41.996Z,4.70
2022-08-24T17:05:11.588Z,6.88
2022-08-24T17:07:38.550Z,6.15
2022-08-24T17:10:09.806Z,6.90
2022-08-24T17:12:37.926Z,4.50
2022-08-24T17:15:07.376Z,4.82
2022-08-24T17:17:34.813Z,6.47
2022-08-24T17:20:02.089Z,7.03
2022-08-24T17:22:31.439Z,6.13
2022-08-24T17:25:00.953Z,4.22
2022-08-24T17:27:32.354Z,7.57
2022-08-24T17:30:00.747Z,5.63
2022-08-24T17:32:27.908Z,6.55
2022-08-24T17:34:58.052Z,4.03
2022-08-24T17:37:25.334Z,4.73
2022-08-24T17:39:55.357Z,5.68
2022-08-24T17:42:49.023Z,6.82
2022-08-24T17:45:13.046Z,4.43
2022-08-24T17:47:41.393Z,5.90
2022-08-24T17:50:10.343Z,4.13
2022-08-24T17:52:38.438Z,5.80
2022-08-24T17:55:07.927Z,6.03
2022-08-24T17:57:35.203Z,6.30
2022-08-24T18:00:02.272Z,4.13
2022-08-24T18:02:29.530Z,4.63
2022-08-24T18:04:59.941Z,7.75
2022-08-24T18:07:42.698Z,4.93
2022-08-24T18:10:19.716Z,5.70
2022-08-24T18:12:46.647Z,5.55
2022-08-24T18:15:14.440Z,6.07
2022-08-24T18:17:46.814Z,5.50
2022-08-24T18:20:16.589Z,8.18
2022-08-24T18:22:47.597Z,7.05
2022-08-24T18:25:23.199Z,6.22
2022-08-24T18:27:53.828Z,6.43
2022-08-24T18:30:30.579Z,5.07
2022-08-24T18:32:59.644Z,5.03
2022-08-24T18:35:30.803Z,7.18
2022-08-24T18:37:57.689Z,6.55
2022-08-24T18:40:26.788Z,9.10
2022-08-24T18:42:59.921Z,8.30
2022-08-24T18:45:31.432Z,6.30
2022-08-24T18:47:58.642Z,6.10
2022-08-24T18:50:29.038Z,9.07
2022-08-24T18:52:59.074Z,6.43
2022-08-24T18:55:28.547Z,8.27
2022-08-24T18:57:58.198Z,6.07
2022-08-24T19:00:25.594Z,8.80
2022-08-24T19:03:01.759Z,7.93
2022-08-24T19:05:28.997Z,8.18
2022-08-24T19:07:57.041Z,6.50
2022-08-24T19:10:26.955Z,9.32
2022-08-24T19:13:00.177Z,9.15
2022-08-24T19:15:39.252Z,6.32
2022-08-24T19:18:11.318Z,9.52
2022-08-24T19:20:49.091Z,11.35
2022-08-24T19:23:25.445Z,6.90
2022-08-24T19:25:55.371Z,10.77
2022-08-24T19:28:26.755Z,9.68
2022-08-24T19:31:01.720Z,7.55
2022-08-24T19:33:34.459Z,8.80
2022-08-24T19:36:04.850Z,9.02
2022-08-24T19:38:31.752Z,7.60
2022-08-24T19:40:59.617Z,10.93
2022-08-24T19:43:28.801Z,8.80
2022-08-24T19:46:03.339Z,7.57
2022-08-24T19:48:39.155Z,8.88
2022-08-24T19:51:12.050Z,11.90
2022-08-24T19:53:39.348Z,8.15
2022-08-24T19:56:12.638Z,10.80
2022-08-24T19:58:47.077Z,10.57
2022-08-24T20:01:23.666Z,11.00
2022-08-24T20:03:51.627Z,11.82
2022-08-24T20:06:23.649Z,10.60
2022-08-24T20:08:52.232Z,12.48
2022-08-24T20:11:20.219Z,10.75
2022-08-24T20:13:52.747Z,11.30
2022-08-24T20:16:21.111Z,10.77
2022-08-24T20:18:48.504Z,12.10
2022-08-24T20:21:16.186Z,14.15
2022-08-24T20:23:44.910Z,11.90
2022-08-24T20:26:15.028Z,11.73
2022-08-24T20:28:46.667Z,12.73
2022-08-24T20:31:17.199Z,13.70
2022-08-24T20:33:44.123Z,14.20
2022-08-24T20:36:41.170Z,12.52
2022-08-24T20:39:11.029Z,13.02
2022-08-24T20:41:40.837Z,14.00
2022-08-24T20:44:09.272Z,15.35
2022-08-24T20:46:37.012Z,14.98
2022-08-24T20:49:07.005Z,13.48
2022-08-24T20:51:34.366Z,14.70
2022-08-24T20:54:08.668Z,13.80
2022-08-24T20:56:37.917Z,14.52
2022-08-24T20:59:11.423Z,13.70
2022-08-24T21:01:41.452Z,13.73
2022-08-24T21:04:09.507Z,14.23
2022-08-24T21:06:40.336Z,13.75
2022-08-24T21:09:07.800Z,13.75
2022-08-24T21:11:45.126Z,14.02
2022-08-24T21:14:12.832Z,13.88
2022-08-24T21:16:46.291Z,13.27
2022-08-24T21:19:17.678Z,13.13
2022-08-24T21:21:46.842Z,13.57
2022-08-24T21:24:15.471Z,13.88
2022-08-24T21:26:42.407Z,15.73
2022-08-24T21:29:10.745Z,15.10
2022-08-24T21:31:38.262Z,15.90
2022-08-24T21:34:23.624Z,15.07
2022-08-24T21:36:52.439Z,14.35
2022-08-24T21:39:22.544Z,14.85
2022-08-24T21:41:53.433Z,15.05
2022-08-24T21:44:22.567Z,16.08
2022-08-24T21:46:53.317Z,15.30
2022-08-24T21:49:23.146Z,15.20
2022-08-24T21:51:55.661Z,15.55
2022-08-24T21:54:24.680Z,15.63
2022-08-24T21:56:51.485Z,15.02
2022-08-24T21:59:18.723Z,15.32
2022-08-24T22:01:46.271Z,16.13
2022-08-24T22:04:18.253Z,18.98
2022-08-24T22:06:50.215Z,16.90
2022-08-24T22:09:20.173Z,17.52
2022-08-24T22:11:47.268Z,17.33
2022-08-24T22:14:16.669Z,17.70
2022-08-24T22:16:45.569Z,17.38
2022-08-24T22:19:14.253Z,17.75
2022-08-24T22:21:47.866Z,18.98
2022-08-24T22:24:18.415Z,17.77
2022-08-24T22:26:45.359Z,18.23
2022-08-24T22:29:12.455Z,18.08
2022-08-24T22:31:42.448Z,17.58
2022-08-24T22:34:19.502Z,19.98
2022-08-24T22:36:48.402Z,17.60
2022-08-24T22:39:15.399Z,19.10
2022-08-24T22:41:42.477Z,17.48
2022-08-24T22:44:21.826Z,16.50
2022-08-24T22:46:56.321Z,18.42
2022-08-24T22:49:26.847Z,19.15
2022-08-24T22:51:53.681Z,18.27
2022-08-24T22:54:24.114Z,19.30
2022-08-24T22:56:54.881Z,17.27
2022-08-24T22:59:28.589Z,19.08
2022-08-24T23:01:57.564Z,20.48
2022-08-24T23:04:31.194Z,22.83
2022-08-24T23:06:58.472Z,21.35
2022-08-24T23:09:25.572Z,26.25
2022-08-24T23:11:52.647Z,28.77
2022-08-24T23:14:23.308Z,27.60
2022-08-24T23:16:50.715Z,26.10
2022-08-24T23:19:38.295Z,28.38
2022-08-24T23:22:06.457Z,27.48
2022-08-24T23:24:36.097Z,26.95
2022-08-24T23:27:04.422Z,28.25
2022-08-24T23:29:32.639Z,29.65
2022-08-24T23:32:04.927Z,28.50
2022-08-24T23:34:32.656Z,27.70
2022-08-24T23:36:59.479Z,28.15
2022-08-24T23:39:28.945Z,26.33
2022-08-24T23:41:55.933Z,28.63
2022-08-24T23:44:30.021Z,28.42
2022-08-24T23:46:58.214Z,28.25
2022-08-24T23:49:26.591Z,27.75
2022-08-24T23:51:53.866Z,27.83
2022-08-24T23:54:22.243Z,28.35
2022-08-24T23:56:50.438Z,28.15
2022-08-24T23:59:29.440Z,28.08
